createdAt,value
2023-04-16T00:00:06.562Z,11.500
2023-04-16T00:01:07.302Z,9.100
2023-04-16T00:02:06.768Z,16.300
2023-04-16T00:03:08.049Z,36.000
2023-04-16T00:04:07.286Z,30.800
2023-04-16T00:05:07.198Z,68.600
2023-04-16T00:06:06.437Z,105.000
2023-04-16T00:07:06.700Z,38.400
2023-04-16T00:08:06.944Z,74.600
2023-04-16T00:09:07.433Z,52.000
2023-04-16T00:10:06.966Z,37.800
2023-04-16T00:11:07.152Z,31.500
2023-04-16T00:12:06.265Z,52.500
2023-04-16T00:13:06.420Z,36.400
2023-04-16T00:14:06.620Z,18.100
2023-04-16T00:15:07.209Z,21.200
2023-04-16T00:16:06.307Z,10.500
2023-04-16T00:17:07.050Z,8.700
2023-04-16T00:18:06.475Z,9.800
2023-04-16T00:19:06.750Z,10.000
2023-04-16T00:20:06.392Z,10.100
2023-04-16T00:21:06.602Z,29.300
2023-04-16T00:22:06.774Z,8.900
2023-04-16T00:23:07.040Z,8.900
2023-04-16T00:24:07.170Z,70.200
2023-04-16T00:25:06.303Z,8.800
2023-04-16T00:26:06.501Z,8.200
2023-04-16T00:27:06.718Z,16.500
2023-04-16T00:28:06.868Z,66.800
2023-04-16T00:29:06.645Z,13.700
2023-04-16T00:30:06.606Z,24.700
2023-04-16T00:31:06.869Z,9.200
2023-04-16T00:32:07.037Z,7.700
2023-04-16T00:33:07.395Z,62.000
2023-04-16T00:34:06.567Z,21.800
2023-04-16T00:35:06.795Z,10.500
2023-04-16T00:36:07.032Z,7.500
2023-04-16T00:37:07.266Z,19.900
2023-04-16T00:38:06.336Z,11.900
2023-04-16T00:39:06.581Z,7.400
2023-04-16T00:40:07.289Z,11.400
2023-04-16T00:41:06.435Z,8.100
2023-04-16T00:42:06.722Z,8.100
2023-04-16T00:43:07.038Z,7.500
2023-04-16T00:44:07.502Z,7.400
2023-04-16T00:45:06.679Z,7.600
2023-04-16T00:46:06.942Z,7.900
2023-04-16T00:47:07.230Z,8.600
2023-04-16T00:48:06.492Z,16.100
2023-04-16T00:49:06.769Z,7.600
2023-04-16T00:50:07.303Z,7.800
2023-04-16T00:51:06.536Z,7.800
2023-04-16T00:52:06.852Z,8.000
2023-04-16T00:53:07.063Z,7.600
2023-04-16T00:54:07.243Z,7.100
2023-04-16T00:55:06.460Z,25.800
2023-04-16T00:56:06.639Z,11.900
2023-04-16T00:57:06.915Z,11.500
2023-04-16T00:58:07.066Z,10.200
2023-04-16T00:59:07.430Z,17.700
2023-04-16T01:00:07.158Z,21.200
2023-04-16T01:01:06.493Z,22.800
2023-04-16T01:02:07.416Z,21.900
2023-04-16T01:03:07.563Z,13.900
2023-04-16T01:04:07.706Z,12.300
2023-04-16T01:05:07.197Z,9.600
2023-04-16T01:06:06.352Z,8.300
2023-04-16T01:07:06.731Z,7.200
2023-04-16T01:08:06.905Z,7.900
2023-04-16T01:09:07.142Z,8.000
2023-04-16T01:10:06.536Z,7.800
2023-04-16T01:11:06.708Z,8.300
2023-04-16T01:12:07.008Z,8.300
2023-04-16T01:13:07.280Z,7.900
2023-04-16T01:14:06.668Z,7.400
2023-04-16T01:15:06.842Z,8.900
2023-04-16T01:16:07.376Z,7.800
2023-04-16T01:17:06.688Z,7.600
2023-04-16T01:18:07.097Z,8.100
2023-04-16T01:19:06.284Z,7.700
2023-04-16T01:20:06.791Z,8.100
2023-04-16T01:21:06.975Z,7.300
2023-04-16T01:22:07.212Z,8.200
2023-04-16T01:23:06.427Z,7.400
2023-04-16T01:24:06.628Z,8.100
2023-04-16T01:25:06.815Z,7.500
2023-04-16T01:26:07.195Z,7.700
2023-04-16T01:27:06.389Z,7.600
2023-04-16T01:28:06.534Z,7.500
2023-04-16T01:29:06.989Z,8.900
2023-04-16T01:30:06.599Z,8.200
2023-04-16T01:31:07.075Z,7.800
2023-04-16T01:32:06.670Z,8.500
2023-04-16T01:33:07.055Z,7.200
2023-04-16T01:34:07.220Z,8.300
2023-04-16T01:35:06.427Z,7.700
2023-04-16T01:36:06.640Z,8.300
2023-04-16T01:37:06.905Z,10.200
2023-04-16T01:38:07.093Z,8.100
2023-04-16T01:39:07.538Z,13.300
2023-04-16T01:40:07.012Z,8.000
2023-04-16T01:41:07.318Z,30.000
2023-04-16T01:42:06.592Z,46.400
2023-04-16T01:43:06.784Z,38.900
2023-04-16T01:44:07.031Z,27.700
2023-04-16T01:45:07.191Z,36.500
2023-04-16T01:46:06.311Z,107.000
2023-04-16T01:47:06.651Z,83.200
2023-04-16T01:48:06.939Z,82.700
2023-04-16T01:49:07.328Z,69.300
2023-04-16T01:50:06.832Z,88.700
2023-04-16T01:51:07.040Z,92.200
2023-04-16T01:52:07.212Z,62.700
2023-04-16T01:53:06.345Z,70.200
2023-04-16T01:54:06.559Z,22.000
2023-04-16T01:55:06.692Z,25.100
2023-04-16T01:56:06.828Z,49.700
2023-04-16T01:57:06.995Z,57.300
2023-04-16T01:58:07.280Z,46.500
2023-04-16T01:59:06.556Z,32.400
2023-04-16T02:00:07.317Z,63.500
2023-04-16T02:01:06.679Z,65.900
2023-04-16T02:02:07.161Z,54.500
2023-04-16T02:03:07.051Z,34.100
2023-04-16T02:04:07.093Z,21.100
2023-04-16T02:05:07.424Z,17.600
2023-04-16T02:06:06.604Z,14.500
2023-04-16T02:07:06.921Z,14.500
2023-04-16T02:08:07.166Z,19.500
2023-04-16T02:09:06.334Z,30.000
2023-04-16T02:10:06.967Z,17.600
2023-04-16T02:11:07.185Z,38.000
2023-04-16T02:12:06.616Z,22.000
2023-04-16T02:13:06.864Z,32.500
2023-04-16T02:14:07.128Z,35.300
2023-04-16T02:15:06.347Z,42.500
2023-04-16T02:16:06.847Z,39.800
2023-04-16T02:17:07.522Z,40.900
2023-04-16T02:18:06.981Z,65.000
2023-04-16T02:19:06.610Z,39.100
2023-04-16T02:20:06.764Z,39.900
2023-04-16T02:21:07.020Z,30.700
2023-04-16T02:22:07.221Z,24.600
2023-04-16T02:23:06.382Z,22.700
2023-04-16T02:24:06.607Z,52.300
2023-04-16T02:25:06.822Z,15.700
2023-04-16T02:26:07.051Z,17.200
2023-04-16T02:27:07.188Z,32.100
2023-04-16T02:28:06.597Z,29.500
2023-04-16T02:29:06.886Z,16.100
2023-04-16T02:30:06.364Z,21.000
2023-04-16T02:31:06.512Z,44.100
2023-04-16T02:32:06.817Z,44.700
2023-04-16T02:33:06.669Z,15.900
2023-04-16T02:34:06.939Z,35.900
2023-04-16T02:35:07.148Z,10.400
2023-04-16T02:36:06.220Z,20.400
2023-04-16T02:37:06.435Z,17.200
2023-04-16T02:38:06.559Z,14.200
2023-04-16T02:39:06.916Z,12.800
2023-04-16T02:40:06.468Z,13.200
2023-04-16T02:41:06.641Z,9.200
2023-04-16T02:42:06.947Z,16.000
2023-04-16T02:43:07.149Z,20.000
2023-04-16T02:44:06.389Z,15.100
2023-04-16T02:45:06.583Z,25.200
2023-04-16T02:46:07.067Z,23.700
2023-04-16T02:47:06.364Z,11.200
2023-04-16T02:48:06.615Z,13.200
2023-04-16T02:49:06.815Z,10.400
2023-04-16T02:50:06.322Z,18.400
2023-04-16T02:51:06.543Z,19.800
2023-04-16T02:52:06.771Z,13.300
2023-04-16T02:53:06.979Z,11.700
2023-04-16T02:54:07.437Z,10.700
2023-04-16T02:55:06.587Z,10.400
2023-04-16T02:56:06.699Z,9.500
2023-04-16T02:57:06.868Z,8.100
2023-04-16T02:58:07.040Z,7.700
2023-04-16T02:59:07.412Z,6.100
2023-04-16T03:00:06.997Z,5.900
2023-04-16T03:01:07.356Z,5.000
2023-04-16T03:02:06.791Z,5.900
2023-04-16T03:03:07.708Z,9.500
2023-04-16T03:04:07.092Z,9.300
2023-04-16T03:05:06.613Z,11.000
2023-04-16T03:06:06.824Z,8.200
2023-04-16T03:07:07.180Z,7.600
2023-04-16T03:08:06.325Z,7.000
2023-04-16T03:09:06.548Z,6.000
2023-04-16T03:10:07.023Z,8.300
2023-04-16T03:11:07.243Z,5.700
2023-04-16T03:12:06.423Z,8.800
2023-04-16T03:13:06.529Z,7.100
2023-04-16T03:14:06.779Z,6.200
2023-04-16T03:15:07.007Z,6.100
2023-04-16T03:16:07.585Z,5.700
2023-04-16T03:17:06.832Z,6.100
2023-04-16T03:18:07.135Z,5.900
2023-04-16T03:19:06.323Z,5.700
2023-04-16T03:20:06.746Z,5.900
2023-04-16T03:21:06.939Z,6.000
2023-04-16T03:22:07.247Z,6.500
2023-04-16T03:23:06.378Z,6.200
2023-04-16T03:24:06.584Z,5.500
2023-04-16T03:25:06.921Z,6.300
2023-04-16T03:26:07.058Z,5.700
2023-04-16T03:27:07.210Z,6.100
2023-04-16T03:28:06.477Z,7.000
2023-04-16T03:29:06.728Z,6.800
2023-04-16T03:30:07.256Z,8.400
2023-04-16T03:31:06.485Z,7.800
2023-04-16T03:32:06.769Z,7.100
2023-04-16T03:33:06.971Z,6.900
2023-04-16T03:34:07.164Z,6.600
2023-04-16T03:35:06.281Z,7.400
2023-04-16T03:36:06.491Z,6.700
2023-04-16T03:37:06.634Z,7.300
2023-04-16T03:38:06.735Z,6.900
2023-04-16T03:39:07.066Z,6.900
2023-04-16T03:40:06.692Z,8.000
2023-04-16T03:41:06.952Z,8.000
2023-04-16T03:42:07.151Z,8.400
2023-04-16T03:43:06.643Z,8.000
2023-04-16T03:44:06.919Z,8.600
2023-04-16T03:45:07.295Z,8.300
2023-04-16T03:46:06.648Z,7.900
2023-04-16T03:47:07.115Z,7.700
2023-04-16T03:48:06.411Z,8.000
2023-04-16T03:49:06.790Z,8.200
2023-04-16T03:50:06.906Z,7.800
2023-04-16T03:51:07.118Z,8.200
2023-04-16T03:52:06.287Z,8.100
2023-04-16T03:53:06.486Z,7.200
2023-04-16T03:54:06.710Z,8.300
2023-04-16T03:55:07.008Z,7.800
2023-04-16T03:56:07.212Z,7.300
2023-04-16T03:57:06.360Z,7.800
2023-04-16T03:58:06.520Z,7.100
2023-04-16T03:59:06.728Z,7.500
2023-04-16T04:00:07.293Z,8.100
2023-04-16T04:01:06.516Z,8.100
2023-04-16T04:02:07.061Z,8.000
2023-04-16T04:03:07.217Z,8.700
2023-04-16T04:04:07.574Z,8.400
2023-04-16T04:05:07.300Z,7.900
2023-04-16T04:08:06.359Z,7.600
2023-04-16T04:09:06.539Z,7.600
2023-04-16T04:10:06.743Z,8.200
2023-04-16T04:11:06.896Z,7.500
2023-04-16T04:12:07.157Z,7.800
2023-04-16T04:13:06.315Z,7.600
2023-04-16T04:14:06.568Z,7.900
2023-04-16T04:15:06.771Z,7.900
2023-04-16T04:16:07.317Z,8.000
2023-04-16T04:17:06.572Z,8.900
2023-04-16T04:18:06.953Z,7.900
2023-04-16T04:19:07.248Z,8.900
2023-04-16T04:20:16.758Z,8.100
2023-04-16T04:21:06.922Z,7.400
2023-04-16T04:22:07.058Z,8.400
2023-04-16T04:23:07.266Z,8.100
2023-04-16T04:24:06.475Z,7.400
2023-04-16T04:25:06.721Z,8.100
2023-04-16T04:26:07.362Z,8.100
2023-04-16T04:27:06.676Z,8.400
2023-04-16T04:28:06.792Z,7.600
2023-04-16T04:29:07.105Z,8.500
2023-04-16T04:30:06.748Z,8.400
2023-04-16T04:31:06.938Z,8.600
2023-04-16T04:32:07.365Z,8.100
2023-04-16T04:33:06.663Z,8.400
2023-04-16T04:34:06.871Z,8.600
2023-04-16T04:35:07.534Z,7.900
2023-04-16T04:36:06.678Z,8.900
2023-04-16T04:37:06.936Z,8.000
2023-04-16T04:38:07.139Z,7.700
2023-04-16T04:39:07.438Z,8.500
2023-04-16T04:40:06.998Z,8.400
2023-04-16T04:41:07.187Z,8.400
2023-04-16T04:42:06.499Z,7.700
2023-04-16T04:43:06.691Z,7.800
2023-04-16T04:44:06.928Z,8.200
2023-04-16T04:45:07.298Z,8.000
2023-04-16T04:46:06.993Z,8.500
2023-04-16T04:47:07.281Z,8.600
2023-04-16T04:48:06.619Z,8.600
2023-04-16T04:49:06.834Z,8.500
2023-04-16T04:50:06.395Z,8.500
2023-04-16T04:51:07.011Z,10.200
2023-04-16T04:52:07.148Z,10.100
2023-04-16T04:53:06.316Z,8.500
2023-04-16T04:54:06.548Z,9.300
2023-04-16T04:55:06.749Z,8.800
2023-04-16T04:56:14.844Z,8.500
2023-04-16T04:58:07.157Z,9.000
2023-04-16T04:59:06.317Z,9.100
2023-04-16T05:00:07.019Z,8.200
2023-04-16T05:01:06.875Z,8.700
2023-04-16T05:02:07.383Z,8.800
2023-04-16T05:03:07.004Z,8.100
2023-04-16T05:04:06.685Z,8.200
2023-04-16T05:05:07.136Z,8.200
2023-04-16T05:06:06.441Z,9.300
2023-04-16T05:07:06.529Z,8.200
2023-04-16T05:08:06.752Z,8.500
2023-04-16T05:09:06.948Z,8.400
2023-04-16T05:10:06.419Z,8.700
2023-04-16T05:11:06.648Z,9.400
2023-04-16T05:12:06.780Z,8.900
2023-04-16T05:13:06.972Z,9.200
2023-04-16T05:14:07.188Z,8.900
2023-04-16T05:15:06.356Z,8.200
2023-04-16T05:16:06.567Z,9.100
2023-04-16T05:17:06.993Z,9.600
2023-04-16T05:18:07.431Z,8.600
2023-04-16T05:19:06.885Z,9.100
2023-04-16T05:20:06.679Z,8.700
2023-04-16T05:21:06.829Z,8.400
2023-04-16T05:22:07.120Z,8.200
2023-04-16T05:23:07.296Z,9.300
2023-04-16T05:24:06.451Z,8.600
2023-04-16T05:25:06.596Z,8.900
2023-04-16T05:26:06.810Z,8.100
2023-04-16T05:27:07.059Z,8.900
2023-04-16T05:28:07.228Z,8.300
2023-04-16T05:29:06.428Z,9.200
2023-04-16T05:30:06.800Z,8.200
2023-04-16T05:31:07.269Z,8.500
2023-04-16T05:32:06.484Z,8.600
2023-04-16T05:33:06.949Z,8.100
2023-04-16T05:34:07.140Z,9.000
2023-04-16T05:35:06.322Z,9.200
2023-04-16T05:36:06.478Z,9.100
2023-04-16T05:37:06.773Z,8.700
2023-04-16T05:38:06.972Z,8.300
2023-04-16T05:39:07.357Z,8.300
2023-04-16T05:40:07.115Z,9.300
2023-04-16T05:41:07.322Z,8.700
2023-04-16T05:42:06.514Z,8.300
2023-04-16T05:43:06.783Z,8.700
2023-04-16T05:44:07.248Z,9.900
2023-04-16T05:45:06.425Z,8.800
2023-04-16T05:46:06.770Z,8.800
2023-04-16T05:47:07.088Z,8.100
2023-04-16T05:48:07.592Z,7.800
2023-04-16T05:49:06.769Z,8.500
2023-04-16T05:50:07.263Z,8.400
2023-04-16T05:51:06.363Z,8.900
2023-04-16T05:52:08.052Z,8.600
2023-04-16T05:53:07.341Z,7.900
2023-04-16T05:54:06.547Z,9.300
2023-04-16T05:55:06.732Z,9.400
2023-04-16T05:56:07.008Z,8.100
2023-04-16T05:57:07.209Z,8.200
2023-04-16T05:58:06.321Z,7.600
2023-04-16T05:59:06.885Z,7.700
2023-04-16T06:02:09.213Z,7.900
2023-04-16T06:03:07.236Z,7.800
2023-04-16T06:04:07.389Z,8.000
2023-04-16T06:05:06.824Z,7.600
2023-04-16T06:06:07.464Z,8.100
2023-04-16T06:07:06.625Z,7.600
2023-04-16T06:08:06.841Z,7.500
2023-04-16T06:09:07.220Z,8.900
2023-04-16T06:10:06.738Z,7.200
2023-04-16T06:11:06.929Z,7.700
2023-04-16T06:12:08.131Z,7.700
2023-04-16T06:13:06.305Z,8.000
2023-04-16T06:14:06.467Z,7.900
2023-04-16T06:15:06.676Z,6.900
2023-04-16T06:16:07.083Z,7.200
2023-04-16T06:17:06.369Z,7.800
2023-04-16T06:18:06.985Z,7.500
2023-04-16T06:19:07.398Z,7.100
2023-04-16T06:20:07.007Z,7.400
2023-04-16T06:21:07.139Z,6.900
2023-04-16T06:22:06.319Z,7.100
2023-04-16T06:23:06.561Z,7.100
2023-04-16T06:24:06.790Z,6.700
2023-04-16T06:25:07.011Z,7.100
2023-04-16T06:26:07.116Z,8.000
2023-04-16T06:27:07.336Z,7.700
2023-04-16T06:29:06.668Z,7.500
2023-04-16T06:30:12.178Z,7.200
2023-04-16T06:31:06.404Z,5.200
2023-04-16T06:32:06.810Z,4.600
2023-04-16T06:33:07.420Z,4.700
2023-04-16T06:34:06.666Z,5.000
2023-04-16T06:35:06.878Z,4.200
2023-04-16T06:36:07.078Z,4.800
2023-04-16T06:37:10.602Z,4.500
2023-04-16T06:38:06.934Z,4.600
2023-04-16T06:39:07.214Z,4.400
2023-04-16T06:40:06.435Z,4.100
2023-04-16T06:41:06.683Z,3.900
2023-04-16T06:42:06.954Z,4.000
2023-04-16T06:43:07.123Z,3.100
2023-04-16T06:44:07.306Z,3.700
2023-04-16T06:45:06.454Z,4.400
2023-04-16T06:46:06.599Z,3.800
2023-04-16T06:47:07.124Z,4.400
2023-04-16T06:48:06.687Z,3.700
2023-04-16T06:49:06.933Z,4.000
2023-04-16T06:50:06.382Z,4.100
2023-04-16T06:51:06.468Z,4.500
2023-04-16T06:52:07.606Z,4.000
2023-04-16T06:56:06.432Z,3.500
2023-04-16T06:57:06.609Z,4.100
2023-04-16T06:58:06.794Z,4.300
2023-04-16T06:59:07.031Z,4.400
2023-04-16T07:00:06.641Z,4.600
2023-04-16T07:01:07.125Z,4.300
2023-04-16T07:02:06.611Z,4.600
2023-04-16T07:03:07.489Z,4.500
2023-04-16T07:04:08.344Z,4.400
2023-04-16T07:06:06.825Z,4.500
2023-04-16T07:07:07.025Z,4.100
2023-04-16T07:08:07.190Z,4.000
2023-04-16T07:09:06.359Z,3.600
2023-04-16T07:10:06.721Z,3.900
2023-04-16T07:11:07.596Z,3.700
2023-04-16T07:12:06.715Z,3.700
2023-04-16T07:13:07.029Z,4.600
2023-04-16T07:14:07.245Z,4.600
2023-04-16T07:15:06.368Z,4.400
2023-04-16T07:16:06.747Z,4.300
2023-04-16T07:17:07.325Z,4.500
2023-04-16T07:18:06.779Z,4.300
2023-04-16T07:19:07.103Z,4.600
2023-04-16T07:20:06.636Z,4.800
2023-04-16T07:21:06.847Z,5.300
2023-04-16T07:22:07.064Z,4.700
2023-04-16T07:23:07.257Z,5.100
2023-04-16T07:24:07.000Z,5.200
2023-04-16T07:25:07.421Z,4.700
2023-04-16T07:26:06.783Z,4.700
2023-04-16T07:27:07.689Z,4.900
2023-04-16T07:28:07.936Z,5.200
2023-04-16T07:29:09.099Z,5.600
2023-04-16T07:30:09.351Z,4.400
2023-04-16T07:32:07.953Z,4.900
2023-04-16T07:33:07.855Z,4.900
2023-04-16T07:34:06.447Z,5.300
2023-04-16T07:35:06.669Z,5.600
2023-04-16T07:36:07.107Z,5.800
2023-04-16T07:37:07.523Z,6.700
2023-04-16T07:38:06.743Z,4.800
2023-04-16T07:39:06.945Z,5.400
2023-04-16T07:40:06.573Z,5.200
2023-04-16T07:41:06.847Z,5.200
2023-04-16T07:42:07.084Z,4.900
2023-04-16T07:43:07.317Z,5.400
2023-04-16T07:44:06.510Z,5.100
2023-04-16T07:45:06.663Z,5.000
2023-04-16T07:46:06.984Z,5.100
2023-04-16T07:47:12.372Z,5.400
2023-04-16T07:48:06.682Z,5.600
2023-04-16T07:49:06.833Z,4.800
2023-04-16T07:50:07.131Z,4.900
2023-04-16T07:51:06.309Z,5.700
2023-04-16T07:52:06.476Z,4.900
2023-04-16T07:53:06.677Z,4.900
2023-04-16T07:54:06.866Z,5.000
2023-04-16T07:55:07.053Z,4.000
2023-04-16T07:56:07.292Z,4.100
2023-04-16T07:57:06.758Z,4.100
2023-04-16T07:58:07.031Z,4.300
2023-04-16T07:59:21.571Z,4.600
2023-04-16T08:01:10.223Z,4.300
2023-04-16T08:02:09.514Z,3.900
2023-04-16T08:03:10.936Z,4.200
2023-04-16T08:04:10.348Z,5.200
2023-04-16T08:05:10.397Z,5.500
2023-04-16T08:06:09.676Z,5.500
2023-04-16T08:07:10.077Z,4.900
2023-04-16T08:08:09.294Z,4.700
2023-04-16T08:09:09.871Z,5.300
2023-04-16T08:10:09.445Z,5.000
2023-04-16T08:11:09.599Z,4.700
2023-04-16T08:12:09.955Z,4.400
2023-04-16T08:13:10.120Z,3.300
2023-04-16T08:14:10.392Z,3.900
2023-04-16T08:15:09.555Z,3.600
2023-04-16T08:16:10.019Z,3.300
2023-04-16T08:17:09.339Z,3.900
2023-04-16T08:18:09.735Z,4.200
2023-04-16T08:19:10.280Z,3.300
2023-04-16T08:21:09.552Z,3.600
2023-04-16T08:22:09.672Z,3.500
2023-04-16T08:23:09.840Z,3.500
2023-04-16T08:24:10.084Z,3.200
2023-04-16T08:25:10.328Z,3.400
2023-04-16T08:27:18.937Z,2.500
2023-04-16T08:28:09.373Z,2.400
2023-04-16T08:29:10.025Z,2.800
2023-04-16T08:30:09.286Z,3.300
2023-04-16T08:31:09.629Z,3.500
2023-04-16T08:32:10.182Z,4.200
2023-04-16T08:33:09.493Z,3.800
2023-04-16T08:34:09.760Z,3.100
2023-04-16T08:35:09.991Z,3.600
2023-04-16T08:36:10.297Z,3.300
2023-04-16T08:37:09.578Z,13.700
2023-04-16T08:38:09.797Z,5.200
2023-04-16T08:39:10.523Z,3.500
2023-04-16T08:40:10.342Z,3.100
2023-04-16T08:41:09.453Z,3.500
2023-04-16T08:42:09.657Z,3.200
2023-04-16T08:43:09.820Z,3.200
2023-04-16T08:44:09.993Z,3.300
2023-04-16T08:45:10.136Z,3.600
2023-04-16T08:46:10.351Z,3.100
2023-04-16T08:47:09.907Z,3.300
2023-04-16T08:48:10.274Z,3.300
2023-04-16T08:49:09.886Z,3.300
2023-04-16T08:50:09.445Z,3.200
2023-04-16T08:51:11.495Z,3.600
2023-04-16T08:52:10.800Z,4.100
2023-04-16T08:54:09.356Z,4.800
2023-04-16T08:55:14.353Z,3.900
2023-04-16T08:57:09.640Z,3.900
2023-04-16T08:58:09.806Z,4.400
2023-04-16T08:59:10.241Z,3.900
2023-04-16T09:00:09.820Z,3.800
2023-04-16T09:01:10.043Z,3.900
2023-04-16T09:02:10.801Z,3.700
2023-04-16T09:03:10.854Z,3.900
2023-04-16T09:04:10.113Z,3.700
2023-04-16T09:05:10.149Z,4.100
2023-04-16T09:06:09.333Z,3.700
2023-04-16T09:07:09.529Z,3.400
2023-04-16T09:08:09.774Z,3.800
2023-04-16T09:09:10.477Z,3.400
2023-04-16T09:12:09.358Z,3.900
2023-04-16T09:13:09.591Z,3.700
2023-04-16T09:14:09.885Z,3.100
2023-04-16T09:15:10.033Z,2.800
2023-04-16T09:16:10.434Z,3.200
2023-04-16T09:17:10.022Z,3.000
2023-04-16T09:18:10.280Z,3.100
2023-04-16T09:19:09.738Z,3.500
2023-04-16T09:20:10.338Z,4.000
2023-04-16T09:21:09.435Z,3.600
2023-04-16T09:22:09.655Z,3.600
2023-04-16T09:23:09.910Z,4.000
2023-04-16T09:24:10.119Z,4.200
2023-04-16T09:25:10.235Z,3.800
2023-04-16T09:26:09.412Z,4.100
2023-04-16T09:27:09.627Z,4.200
2023-04-16T09:28:09.802Z,3.500
2023-04-16T09:29:10.417Z,3.800
2023-04-16T09:30:09.932Z,3.500
2023-04-16T09:31:10.032Z,3.700
2023-04-16T09:32:10.492Z,4.100
2023-04-16T09:33:10.151Z,4.200
2023-04-16T09:34:09.645Z,3.800
2023-04-16T09:35:09.858Z,3.900
2023-04-16T09:36:10.297Z,3.900
2023-04-16T09:37:09.505Z,3.500
2023-04-16T09:38:09.636Z,3.800
2023-04-16T09:39:12.760Z,3.700
2023-04-16T09:41:10.085Z,3.600
2023-04-16T09:42:09.281Z,3.400
2023-04-16T09:43:09.453Z,3.700
2023-04-16T09:44:09.610Z,3.500
2023-04-16T09:45:09.895Z,3.400
2023-04-16T09:46:10.311Z,3.100
2023-04-16T09:47:09.547Z,3.500
2023-04-16T09:48:09.869Z,3.300
2023-04-16T09:49:10.782Z,3.200
2023-04-16T09:50:10.543Z,3.500
2023-04-16T09:51:09.419Z,3.200
2023-04-16T09:52:09.591Z,3.100
2023-04-16T09:53:09.809Z,3.300
2023-04-16T09:55:09.535Z,3.200
2023-04-16T09:56:09.824Z,3.100
2023-04-16T09:57:10.015Z,3.300
2023-04-16T09:58:10.207Z,3.200
2023-04-16T09:59:09.802Z,3.300
2023-04-16T10:00:09.346Z,3.500
2023-04-16T10:01:15.161Z,3.100
2023-04-16T10:02:16.289Z,2.900
2023-04-16T10:03:10.025Z,2.700
2023-04-16T10:04:10.987Z,3.700
2023-04-16T10:05:10.551Z,3.200
2023-04-16T10:06:09.820Z,3.200
2023-04-16T10:07:09.997Z,3.300
2023-04-16T10:08:10.149Z,3.200
2023-04-16T10:09:09.525Z,3.000
2023-04-16T10:10:10.173Z,3.700
2023-04-16T10:11:09.340Z,3.500
2023-04-16T10:12:09.491Z,3.900
2023-04-16T10:13:09.622Z,3.600
2023-04-16T10:14:09.855Z,3.000
2023-04-16T10:15:10.100Z,3.300
2023-04-16T10:16:10.296Z,3.100
2023-04-16T10:17:09.786Z,2.800
2023-04-16T10:18:10.425Z,3.300
2023-04-16T10:19:10.009Z,3.100
2023-04-16T10:20:09.527Z,3.000
2023-04-16T10:21:09.686Z,4.600
2023-04-16T10:22:09.872Z,6.400
2023-04-16T10:23:10.323Z,13.300
2023-04-16T10:24:09.426Z,3.800
2023-04-16T10:25:09.644Z,4.000
2023-04-16T10:26:12.092Z,3.800
2023-04-16T10:29:09.874Z,3.500
2023-04-16T10:30:10.354Z,3.900
2023-04-16T10:31:09.783Z,3.400
2023-04-16T10:32:10.159Z,3.800
2023-04-16T10:33:09.507Z,3.500
2023-04-16T10:34:09.941Z,3.500
2023-04-16T10:35:10.249Z,3.900
2023-04-16T10:36:19.193Z,3.900
2023-04-16T10:38:09.394Z,4.500
2023-04-16T10:39:09.896Z,3.700
2023-04-16T10:40:10.368Z,4.200
2023-04-16T10:41:09.467Z,3.700
2023-04-16T10:42:09.622Z,3.400
2023-04-16T10:43:09.864Z,3.400
2023-04-16T10:44:10.071Z,3.300
2023-04-16T10:45:10.269Z,3.700
2023-04-16T10:46:09.544Z,3.300
2023-04-16T10:47:09.860Z,3.200
2023-04-16T10:48:10.230Z,4.300
2023-04-16T10:49:09.666Z,3.800
2023-04-16T10:50:10.187Z,3.100
2023-04-16T10:51:09.359Z,3.000
2023-04-16T10:52:09.536Z,3.000
2023-04-16T10:53:09.779Z,2.500
2023-04-16T10:54:09.975Z,2.400
2023-04-16T10:55:10.279Z,3.100
2023-04-16T10:56:09.358Z,2.700
2023-04-16T10:57:09.557Z,3.100
2023-04-16T10:58:09.755Z,2.500
2023-04-16T10:59:10.219Z,2.600
2023-04-16T11:01:10.096Z,3.500
2023-04-16T11:02:11.034Z,3.100
2023-04-16T11:03:09.987Z,3.400
2023-04-16T11:04:10.282Z,3.800
2023-04-16T11:05:09.831Z,4.800
2023-04-16T11:06:10.025Z,4.100
2023-04-16T11:07:10.364Z,4.000
2023-04-16T11:08:09.457Z,3.300
2023-04-16T11:09:14.604Z,2.900
2023-04-16T11:11:09.971Z,3.500
2023-04-16T11:12:10.200Z,3.100
2023-04-16T11:13:09.315Z,2.900
2023-04-16T11:14:09.462Z,3.700
2023-04-16T11:15:09.724Z,3.200
2023-04-16T11:16:09.981Z,3.300
2023-04-16T11:17:10.311Z,3.200
2023-04-16T11:18:09.532Z,2.800
2023-04-16T11:19:12.899Z,2.700
2023-04-16T11:20:17.848Z,2.700
2023-04-16T11:21:09.580Z,3.200
2023-04-16T11:22:09.699Z,3.300
2023-04-16T11:23:09.826Z,2.900
2023-04-16T11:24:10.055Z,3.200
2023-04-16T11:25:10.279Z,3.100
2023-04-16T11:26:09.435Z,3.200
2023-04-16T11:27:09.670Z,2.700
2023-04-16T11:28:09.916Z,3.000
2023-04-16T11:29:10.762Z,2.800
2023-04-16T11:32:09.692Z,2.800
2023-04-16T11:33:09.956Z,2.700
2023-04-16T11:34:10.101Z,2.600
2023-04-16T11:35:10.345Z,2.300
2023-04-16T11:36:09.590Z,2.900
2023-04-16T11:37:09.773Z,3.600
2023-04-16T11:38:10.064Z,4.600
2023-04-16T11:39:10.688Z,5.000
2023-04-16T11:40:10.221Z,3.600
2023-04-16T11:41:09.357Z,3.100
2023-04-16T11:42:09.558Z,2.800
2023-04-16T11:43:09.853Z,3.000
2023-04-16T11:44:10.022Z,2.900
2023-04-16T11:45:10.175Z,3.400
2023-04-16T11:46:24.461Z,2.300
2023-04-16T11:48:13.010Z,2.600
2023-04-16T11:49:12.547Z,3.000
2023-04-16T11:50:11.872Z,3.000
2023-04-16T11:51:12.167Z,2.500
2023-04-16T11:52:11.271Z,2.500
2023-04-16T11:53:11.443Z,2.800
2023-04-16T11:54:13.540Z,2.400
2023-04-16T11:56:11.832Z,2.500
2023-04-16T11:57:12.016Z,2.500
2023-04-16T11:58:12.257Z,2.800
2023-04-16T11:59:12.046Z,2.600
2023-04-16T12:00:25.055Z,2.700
2023-04-16T12:02:13.746Z,2.600
2023-04-16T12:03:13.812Z,3.000
2023-04-16T12:04:13.587Z,2.800
2023-04-16T12:06:12.532Z,3.400
2023-04-16T12:07:12.680Z,3.100
2023-04-16T12:08:12.842Z,3.100
2023-04-16T12:09:13.104Z,2.900
2023-04-16T12:10:15.398Z,3.100
2023-04-16T12:11:12.901Z,2.500
2023-04-16T12:12:13.115Z,2.800
2023-04-16T12:13:13.263Z,2.900
2023-04-16T12:14:12.445Z,3.000
2023-04-16T12:15:12.843Z,2.600
2023-04-16T12:16:13.115Z,2.500
2023-04-16T12:17:12.602Z,2.300
2023-04-16T12:18:13.019Z,3.100
2023-04-16T12:19:13.537Z,3.000
2023-04-16T12:20:12.731Z,2.600
2023-04-16T12:21:12.917Z,2.700
2023-04-16T12:22:13.100Z,2.600
2023-04-16T12:23:13.339Z,3.400
2023-04-16T12:24:12.463Z,3.000
2023-04-16T12:25:12.709Z,10.700
2023-04-16T12:26:12.954Z,4.000
2023-04-16T12:27:14.431Z,3.100
2023-04-16T12:28:12.535Z,3.000
2023-04-16T12:29:12.944Z,3.400
2023-04-16T12:30:13.356Z,2.800
2023-04-16T12:31:12.681Z,3.200
2023-04-16T12:32:12.997Z,2.900
2023-04-16T12:33:16.184Z,2.700
2023-04-16T12:35:17.360Z,3.000
2023-04-16T12:36:12.504Z,2.700
2023-04-16T12:37:12.725Z,2.300
2023-04-16T12:38:12.425Z,2.100
2023-04-16T12:39:12.911Z,3.300
2023-04-16T12:40:13.397Z,2.600
2023-04-16T12:41:13.098Z,2.800
2023-04-16T12:42:13.255Z,2.700
2023-04-16T12:43:12.384Z,3.300
2023-04-16T12:44:12.910Z,2.900
2023-04-16T12:45:13.099Z,3.200
2023-04-16T12:46:13.501Z,3.200
2023-04-16T12:47:12.703Z,2.900
2023-04-16T12:48:13.228Z,3.000
2023-04-16T12:49:12.839Z,2.400
2023-04-16T12:50:13.043Z,2.600
2023-04-16T12:51:13.207Z,2.900
2023-04-16T12:52:12.354Z,2.600
2023-04-16T12:53:12.594Z,2.700
2023-04-16T12:54:12.772Z,2.300
2023-04-16T12:55:13.000Z,2.400
2023-04-16T12:56:13.212Z,2.900
2023-04-16T12:57:12.391Z,2.400
2023-04-16T12:58:14.163Z,2.400
2023-04-16T12:59:12.387Z,2.600
2023-04-16T13:00:12.845Z,2.200
2023-04-16T13:01:13.075Z,2.400
2023-04-16T13:02:13.733Z,2.500
2023-04-16T13:03:13.558Z,2.300
2023-04-16T13:04:14.057Z,2.200
2023-04-16T13:05:12.484Z,2.400
2023-04-16T13:06:12.672Z,2.300
2023-04-16T13:07:12.861Z,2.300
2023-04-16T13:08:13.019Z,2.400
2023-04-16T13:09:13.486Z,2.800
2023-04-16T13:10:12.661Z,2.900
2023-04-16T13:11:12.901Z,2.800
2023-04-16T13:12:13.140Z,3.000
2023-04-16T13:13:12.330Z,2.900
2023-04-16T13:14:12.598Z,3.100
2023-04-16T13:15:12.803Z,3.100
2023-04-16T13:16:13.473Z,2.800
2023-04-16T13:17:12.716Z,3.000
2023-04-16T13:18:13.007Z,3.000
2023-04-16T13:19:13.575Z,3.000
2023-04-16T13:20:12.820Z,3.200